KBFF/BFF METAR and TAF weather

Enter ICAO airport designator
Station Type Date Time Source
KBFF METAR 2019/05/21 20:00 UTC NOAA

KBFF 212000Z AUTO 02016KT 6SM -RA BR BKN028 OVC036 03/02 A2957 RMK AO2 P0000 T00280022 TSNO


Station Type Date Time Source
KBFF Decoded METAR 2019/05/21 20:00 UTC NOAA

SCOTTSBLUFF HEILIG FIELD, NE, United States (KBFF) 41-52N 103-36W 1203M
May 21, 2019 - 04:00 PM EDT / 2019.05.21 2000 UTC
Wind: from the NNE (020 degrees) at 18 MPH (16 KT):0
Visibility: 6 mile(s):0
Sky conditions: overcast
Weather: light rain; mist
Precipitation last hour: A trace
Temperature: 37.0 F (2.8 C)
Dew Point: 36.0 F (2.2 C)
Relative Humidity: 95%
Pressure (altimeter): 29.57 in. Hg (1001 hPa)
ob: KBFF 212000Z AUTO 02016KT 6SM -RA BR BKN028 OVC036 03/02 A2957 RMK AO2 P0000 T00280022 TSNO
cycle: 20

Station Type Date Time Source
KBFF TAF 2019/05/21 18:06 UTC NOAA

TAF KBFF 211804Z 2118/2218 01015G25KT 6SM -RA BR SCT010 OVC030
FM212100 34014G24KT 3SM -SN BR OVC007
FM220600 31011KT 5SM -RASN BR OVC020
FM221200 31011KT 5SM BR OVC030

Example: see airport list